Time;durP1;ratioP1;P1;durP2;ratioP2;P2;SDS_P1;SDS_P2;PMS_P1;PMS_P2;Temp;Humidity;BMP_temperature;BMP_pressure;BME280_temperature;BME280_humidity;BME280_pressure;Samples;Min_cycle;Max_cycle;Signal;HPM_P1;HPM_P2
2023/05/12 00:00:15;;;;;;;8.70;7.80;;;13.80;99.90;;;;;;5022623;28;20195;-88
2023/05/12 00:02:41;;;;;;;9.07;8.07;;;13.80;99.90;;;;;;5034632;28;20178;-88
2023/05/12 00:05:07;;;;;;;9.20;7.72;;;13.70;99.90;;;;;;5033659;28;20210;-88
2023/05/12 00:07:33;;;;;;;8.70;7.80;;;13.70;99.90;;;;;;5034814;28;20647;-85
2023/05/12 00:09:59;;;;;;;13.38;7.32;;;13.70;99.90;;;;;;5034978;28;20214;-85
2023/05/12 00:12:25;;;;;;;8.30;7.45;;;13.80;99.90;;;;;;5027402;28;20610;-86
2023/05/12 00:14:50;;;;;;;8.57;7.35;;;13.80;99.90;;;;;;5018749;28;20187;-85
2023/05/12 00:17:16;;;;;;;9.48;7.20;;;13.80;99.90;;;;;;5035442;28;20170;-86
2023/05/12 00:19:42;;;;;;;8.35;7.40;;;13.70;99.90;;;;;;5033000;28;20272;-86
2023/05/12 00:22:11;;;;;;;7.68;6.85;;;13.70;99.90;;;;;;5032569;28;20222;-86
2023/05/12 00:24:41;;;;;;;10.00;6.88;;;13.70;99.90;;;;;;5034037;28;20187;-85
2023/05/12 00:27:07;;;;;;;7.40;6.70;;;13.80;99.90;;;;;;5034983;28;20206;-86
2023/05/12 00:29:33;;;;;;;8.15;7.22;;;13.70;99.90;;;;;;5034003;28;20178;-85
2023/05/12 00:31:59;;;;;;;8.18;7.30;;;13.70;99.90;;;;;;5030211;28;20645;-86
2023/05/12 00:34:26;;;;;;;8.13;7.32;;;13.70;99.90;;;;;;5028085;28;20265;-85
2023/05/12 00:36:52;;;;;;;10.20;7.55;;;13.60;99.90;;;;;;5035018;28;20173;-86
2023/05/12 00:39:17;;;;;;;8.18;7.38;;;13.60;99.90;;;;;;5033322;28;20187;-85
2023/05/12 00:41:43;;;;;;;8.57;7.13;;;13.60;99.90;;;;;;5034456;28;20625;-85
2023/05/12 00:44:10;;;;;;;10.80;7.80;;;13.60;99.90;;;;;;5032678;28;20225;-85
2023/05/12 00:46:36;;;;;;;8.73;6.88;;;13.60;99.90;;;;;;5032624;28;20257;-85
2023/05/12 00:49:01;;;;;;;10.88;6.93;;;13.60;99.90;;;;;;5033189;28;20214;-86
2023/05/12 00:51:27;;;;;;;8.23;7.43;;;13.60;99.90;;;;;;5033019;28;20247;-87
2023/05/12 00:53:55;;;;;;;8.10;6.50;;;13.70;99.90;;;;;;5033466;28;20183;-85
2023/05/12 00:56:21;;;;;;;7.50;6.78;;;13.60;99.90;;;;;;5031751;28;20193;-85
2023/05/12 00:58:47;;;;;;;8.30;7.13;;;13.60;99.90;;;;;;5034738;28;20549;-85
2023/05/12 01:01:13;;;;;;;9.45;7.32;;;13.60;99.90;;;;;;5032342;28;20633;-85
2023/05/12 01:06:41;;;;;;;14.23;7.05;;;13.50;99.90;;;;;;5340118;22;20689;-86
2023/05/12 01:09:08;;;;;;;7.55;6.75;;;13.50;99.90;;;;;;4993141;28;20184;-86
2023/05/12 01:11:33;;;;;;;7.55;6.43;;;13.50;99.90;;;;;;4993387;28;20642;-85
2023/05/12 01:13:59;;;;;;;9.07;6.25;;;13.50;99.90;;;;;;5010313;28;20180;-87
2023/05/12 01:16:38;;;;;;;7.28;6.30;;;13.50;99.90;;;;;;4995207;28;20188;-88
2023/05/12 01:19:13;;;;;;;8.45;5.95;;;13.50;99.90;;;;;;4993369;28;20187;-87
2023/05/12 01:21:39;;;;;;;6.68;5.97;;;13.40;99.90;;;;;;4994173;28;20176;-88
2023/05/12 01:24:07;;;;;;;7.55;6.05;;;13.40;99.90;;;;;;4994481;28;20183;-88
2023/05/12 01:26:35;;;;;;;7.68;6.47;;;13.50;99.90;;;;;;4994085;28;20223;-87
2023/05/12 01:29:03;;;;;;;7.28;6.40;;;13.40;99.90;;;;;;4993683;28;20199;-87
2023/05/12 01:31:29;;;;;;;7.68;6.88;;;13.40;99.90;;;;;;4993109;28;20290;-86
2023/05/12 01:33:55;;;;;;;7.85;6.45;;;13.40;99.90;;;;;;4993789;28;20178;-88
2023/05/12 01:36:21;;;;;;;11.60;6.45;;;13.40;99.90;;;;;;4992568;28;20275;-87
2023/05/12 01:38:46;;;;;;;7.68;6.60;;;13.40;99.90;;;;;;4993845;28;20207;-88
2023/05/12 01:41:12;;;;;;;10.68;6.53;;;13.30;99.90;;;;;;4993106;28;20218;-87
2023/05/12 01:43:37;;;;;;;7.28;6.57;;;13.30;99.90;;;;;;4993818;28;20187;-89
2023/05/12 01:46:04;;;;;;;7.68;6.63;;;13.30;99.90;;;;;;4993926;28;20223;-88
2023/05/12 01:48:30;;;;;;;8.93;6.50;;;13.30;99.90;;;;;;4993037;28;20180;-88
2023/05/12 01:50:59;;;;;;;7.60;6.82;;;13.20;99.90;;;;;;4994395;28;20282;-88
2023/05/12 01:53:24;;;;;;;7.82;7.03;;;13.30;99.90;;;;;;4993305;28;20179;-88
2023/05/12 01:55:50;;;;;;;8.20;7.40;;;13.20;99.90;;;;;;4992794;28;20618;-87
2023/05/12 01:58:17;;;;;;;10.38;6.80;;;13.20;99.90;;;;;;4993725;28;20191;-88
2023/05/12 02:00:43;;;;;;;7.03;6.28;;;13.20;99.90;;;;;;4993793;28;20176;-87
2023/05/12 02:03:08;;;;;;;7.60;6.80;;;13.20;99.90;;;;;;4992582;28;20194;-87
2023/05/12 02:05:34;;;;;;;8.50;6.57;;;13.20;99.90;;;;;;5009260;28;20227;-88
2023/05/12 02:08:01;;;;;;;7.78;6.50;;;13.20;99.90;;;;;;4993143;28;20677;-88
2023/05/12 02:10:26;;;;;;;7.10;6.40;;;13.20;99.90;;;;;;4993604;28;20315;-87
2023/05/12 02:12:52;;;;;;;8.27;6.63;;;13.20;99.90;;;;;;4993887;28;20207;-88
2023/05/12 02:15:18;;;;;;;9.07;6.55;;;13.10;99.90;;;;;;4990233;28;20526;-87
2023/05/12 02:17:43;;;;;;;7.15;6.00;;;13.10;99.90;;;;;;4975121;28;20519;-87
2023/05/12 02:20:11;;;;;;;8.35;6.47;;;13.10;99.90;;;;;;4991953;28;20180;-87
2023/05/12 02:22:36;;;;;;;6.97;6.32;;;13.10;99.90;;;;;;4991617;28;20290;-86
2023/05/12 02:25:02;;;;;;;9.32;7.47;;;13.10;99.90;;;;;;4993534;28;20586;-87
2023/05/12 02:27:31;;;;;;;7.05;6.35;;;13.10;99.90;;;;;;4992894;28;20215;-87
2023/05/12 02:29:56;;;;;;;7.32;6.63;;;13.00;99.90;;;;;;4994666;28;20156;-87
2023/05/12 02:32:22;;;;;;;8.32;6.25;;;13.00;99.90;;;;;;4992569;28;20180;-86
2023/05/12 02:34:49;;;;;;;8.00;7.20;;;13.00;99.90;;;;;;4993221;28;20208;-87
2023/05/12 02:37:14;;;;;;;9.13;6.80;;;13.00;99.90;;;;;;4991888;28;20179;-86
2023/05/12 02:39:40;;;;;;;7.72;6.85;;;13.00;99.90;;;;;;4993942;28;20188;-86
2023/05/12 02:42:06;;;;;;;7.63;6.80;;;13.00;99.90;;;;;;4991559;28;20176;-86
2023/05/12 02:44:32;;;;;;;6.90;6.20;;;13.00;99.90;;;;;;4993732;28;20198;-86
2023/05/12 02:46:58;;;;;;;9.77;6.25;;;12.90;99.90;;;;;;4997296;28;20277;-87
2023/05/12 02:49:24;;;;;;;7.38;5.90;;;12.90;99.90;;;;;;4996776;28;20180;-86
2023/05/12 02:51:50;;;;;;;6.75;6.07;;;12.80;99.90;;;;;;4996004;28;20187;-86
2023/05/12 02:54:15;;;;;;;9.63;6.22;;;12.80;99.90;;;;;;4992408;28;20181;-86
2023/05/12 02:56:41;;;;;;;6.13;5.50;;;12.70;99.90;;;;;;4982648;28;20524;-87
2023/05/12 02:59:07;;;;;;;8.30;5.07;;;12.70;99.90;;;;;;4996442;28;20215;-87
2023/05/12 03:01:32;;;;;;;6.85;5.70;;;12.70;99.90;;;;;;4995790;28;20188;-86
2023/05/12 03:03:58;;;;;;;8.60;5.45;;;12.60;99.90;;;;;;4996562;28;20180;-86
2023/05/12 03:06:24;;;;;;;6.05;5.20;;;12.60;99.90;;;;;;4994905;28;20239;-85
2023/05/12 03:08:49;;;;;;;10.25;5.70;;;12.60;99.90;;;;;;5012901;28;20184;-87
2023/05/12 03:11:15;;;;;;;8.98;5.88;;;12.60;99.90;;;;;;4997109;28;20188;-87
2023/05/12 03:13:41;;;;;;;6.13;5.00;;;12.50;99.90;;;;;;4997455;28;20183;-87
2023/05/12 03:16:06;;;;;;;5.32;4.80;;;12.50;99.90;;;;;;4995672;28;20183;-87
2023/05/12 03:18:33;;;;;;;11.55;5.40;;;12.50;99.90;;;;;;4995633;28;20186;-87
2023/05/12 03:20:59;;;;;;;5.78;5.25;;;12.50;99.90;;;;;;4981469;28;20545;-87
2023/05/12 03:23:24;;;;;;;11.75;5.10;;;12.50;99.90;;;;;;4976877;28;20184;-87
2023/05/12 03:25:50;;;;;;;5.70;5.10;;;12.40;99.90;;;;;;5005168;28;20207;-87
2023/05/12 03:28:16;;;;;;;7.22;4.90;;;12.40;99.90;;;;;;5011378;28;20195;-87
2023/05/12 03:30:41;;;;;;;6.95;4.97;;;12.30;99.90;;;;;;4994736;28;20316;-87
2023/05/12 03:33:07;;;;;;;6.13;5.22;;;12.30;99.90;;;;;;5012062;28;20176;-87
2023/05/12 03:35:33;;;;;;;7.78;4.88;;;12.30;99.90;;;;;;4995421;28;20290;-86
2023/05/12 03:37:58;;;;;;;6.32;5.53;;;12.30;99.90;;;;;;4978943;28;20279;-87
2023/05/12 03:40:24;;;;;;;8.90;5.13;;;12.30;99.90;;;;;;4987037;28;20180;-86
2023/05/12 03:42:50;;;;;;;6.07;4.90;;;12.20;99.90;;;;;;4995579;28;20520;-87
2023/05/12 03:45:16;;;;;;;6.65;4.57;;;12.20;99.90;;;;;;4994972;28;20642;-87
2023/05/12 03:47:41;;;;;;;5.13;4.63;;;12.20;99.90;;;;;;4995363;28;20202;-87
2023/05/12 03:50:07;;;;;;;7.88;4.70;;;12.20;99.90;;;;;;4994864;28;20271;-87
2023/05/12 03:52:33;;;;;;;5.45;4.93;;;12.20;99.90;;;;;;4995526;28;20176;-87
2023/05/12 03:54:59;;;;;;;6.70;4.72;;;12.20;99.90;;;;;;4995209;28;20180;-87
2023/05/12 03:57:24;;;;;;;12.32;4.93;;;12.20;99.90;;;;;;4995353;28;20188;-87
2023/05/12 03:59:50;;;;;;;4.63;4.18;;;12.20;99.90;;;;;;4996007;28;20188;-87
2023/05/12 04:02:16;;;;;;;5.25;4.63;;;12.20;99.90;;;;;;4996520;28;20225;-86
2023/05/12 04:04:41;;;;;;;6.90;4.15;;;12.20;99.90;;;;;;4994854;28;20183;-87
2023/05/12 04:07:07;;;;;;;4.55;4.13;;;12.20;99.90;;;;;;4995113;28;20219;-87
2023/05/12 04:09:33;;;;;;;5.00;4.38;;;12.20;99.90;;;;;;4994504;28;20500;-86
2023/05/12 04:11:59;;;;;;;6.55;4.10;;;12.20;99.90;;;;;;4995640;28;20650;-87
2023/05/12 04:14:24;;;;;;;5.00;4.22;;;12.30;99.90;;;;;;4994156;28;20168;-86
2023/05/12 04:16:50;;;;;;;5.45;4.22;;;12.30;99.90;;;;;;4994591;28;20254;-86
2023/05/12 04:19:17;;;;;;;4.78;4.28;;;12.30;99.90;;;;;;4994095;28;20172;-86
2023/05/12 04:21:42;;;;;;;5.15;4.07;;;12.30;99.90;;;;;;4995650;28;20591;-87
2023/05/12 04:24:09;;;;;;;5.45;4.07;;;12.30;99.90;;;;;;4995651;28;20184;-88
2023/05/12 04:26:35;;;;;;;6.57;4.53;;;12.30;99.90;;;;;;4996981;28;20243;-88
2023/05/12 04:29:00;;;;;;;6.10;4.03;;;12.30;99.90;;;;;;4995082;28;20702;-88
2023/05/12 04:31:26;;;;;;;7.28;4.15;;;12.30;99.90;;;;;;4994041;28;20646;-88
2023/05/12 04:33:51;;;;;;;6.18;4.30;;;12.30;99.90;;;;;;4995272;28;20207;-88
2023/05/12 04:36:17;;;;;;;8.10;3.97;;;12.30;99.90;;;;;;4994881;28;20182;-87
2023/05/12 04:38:43;;;;;;;6.97;4.18;;;12.20;99.90;;;;;;4995713;28;20184;-88
2023/05/12 04:41:08;;;;;;;8.38;4.70;;;12.30;99.90;;;;;;4991022;28;20188;-88
2023/05/12 04:43:34;;;;;;;8.43;4.88;;;12.30;99.90;;;;;;5009204;28;20194;-87
2023/05/12 04:46:00;;;;;;;6.57;4.47;;;12.30;99.90;;;;;;4996117;28;20208;-87
2023/05/12 04:48:27;;;;;;;5.20;4.47;;;12.30;99.90;;;;;;4981627;28;20199;-89
2023/05/12 04:50:53;;;;;;;4.85;4.40;;;12.40;99.90;;;;;;4979421;28;20223;-88
2023/05/12 04:53:19;;;;;;;6.78;4.32;;;12.40;99.90;;;;;;5007100;28;20226;-88
2023/05/12 04:55:45;;;;;;;5.57;4.43;;;12.40;99.90;;;;;;4994228;28;20184;-88
2023/05/12 04:58:13;;;;;;;6.68;4.35;;;12.40;99.90;;;;;;5009462;28;20211;-86
2023/05/12 05:00:39;;;;;;;5.30;4.32;;;12.40;99.90;;;;;;5006508;28;20239;-86
2023/05/12 05:03:05;;;;;;;5.88;4.45;;;12.40;99.90;;;;;;5006443;28;20278;-86
2023/05/12 05:05:31;;;;;;;7.85;4.47;;;12.50;99.90;;;;;;4993519;28;20267;-87
2023/05/12 05:08:00;;;;;;;4.80;4.30;;;12.50;99.90;;;;;;4993461;28;20600;-88
2023/05/12 05:10:26;;;;;;;7.60;4.18;;;12.50;99.90;;;;;;4993984;28;20172;-87
2023/05/12 05:12:51;;;;;;;7.65;4.25;;;12.60;99.90;;;;;;4993609;28;20199;-87
2023/05/12 05:15:18;;;;;;;7.03;4.70;;;12.60;99.90;;;;;;4995263;28;20172;-87
2023/05/12 05:17:47;;;;;;;5.03;4.40;;;12.60;99.90;;;;;;4992025;28;20188;-87
2023/05/12 05:20:13;;;;;;;8.77;4.15;;;12.60;99.90;;;;;;4978059;28;20636;-88
2023/05/12 05:22:39;;;;;;;5.45;4.22;;;12.70;99.90;;;;;;4993473;28;20198;-88
2023/05/12 05:25:06;;;;;;;7.30;4.22;;;12.70;99.90;;;;;;4993782;28;20388;-88
2023/05/12 05:27:31;;;;;;;5.15;4.10;;;12.80;99.90;;;;;;4992899;28;20252;-88
2023/05/12 05:29:57;;;;;;;4.97;4.25;;;12.80;99.90;;;;;;4993837;28;20512;-87
2023/05/12 05:32:23;;;;;;;4.60;4.15;;;12.80;99.90;;;;;;4992108;28;20192;-87
2023/05/12 05:34:49;;;;;;;5.35;4.47;;;12.90;99.90;;;;;;4993537;28;20253;-87
2023/05/12 05:37:14;;;;;;;8.80;4.40;;;12.90;99.90;;;;;;4993579;28;20603;-88
2023/05/12 05:39:41;;;;;;;6.30;4.03;;;12.90;99.90;;;;;;4993024;28;20224;-89
2023/05/12 05:42:07;;;;;;;5.20;4.03;;;13.00;99.90;;;;;;4993685;28;20187;-87
2023/05/12 05:44:32;;;;;;;6.95;4.32;;;13.10;99.90;;;;;;4993439;28;20202;-88
2023/05/12 05:46:58;;;;;;;5.35;4.13;;;13.10;99.90;;;;;;4994040;28;20274;-88
2023/05/12 05:49:24;;;;;;;7.85;4.22;;;13.10;99.90;;;;;;4993066;28;20183;-88
2023/05/12 05:51:50;;;;;;;4.72;4.15;;;13.10;99.90;;;;;;4993352;28;20202;-87
2023/05/12 05:54:15;;;;;;;5.40;4.25;;;13.20;99.90;;;;;;4992768;28;20234;-88
2023/05/12 05:56:41;;;;;;;8.10;4.32;;;13.20;99.90;;;;;;4993245;28;20650;-88
2023/05/12 05:59:08;;;;;;;5.88;4.40;;;13.30;99.90;;;;;;4994205;28;20211;-88
2023/05/12 06:01:34;;;;;;;10.45;4.28;;;13.20;99.90;;;;;;4993290;28;20180;-88
2023/05/12 06:04:00;;;;;;;5.55;4.28;;;13.30;99.90;;;;;;4993675;28;20580;-88
2023/05/12 06:06:25;;;;;;;4.30;3.88;;;13.30;99.90;;;;;;4992870;28;20757;-88
2023/05/12 06:08:51;;;;;;;5.78;4.40;;;13.30;99.90;;;;;;4994927;28;20266;-88
2023/05/12 06:11:16;;;;;;;5.20;4.03;;;13.40;99.90;;;;;;4993640;28;20518;-87
2023/05/12 06:13:42;;;;;;;6.63;4.57;;;13.40;99.90;;;;;;4994666;28;20179;-87
2023/05/12 06:16:08;;;;;;;5.13;4.15;;;13.40;99.90;;;;;;4993226;28;20188;-87
2023/05/12 06:18:36;;;;;;;5.18;4.68;;;13.50;99.90;;;;;;4993748;28;20176;-87
2023/05/12 06:21:02;;;;;;;8.60;4.18;;;13.50;99.90;;;;;;4995770;28;20330;-87
2023/05/12 06:23:28;;;;;;;4.70;4.22;;;13.50;99.90;;;;;;5013051;28;20191;-87
2023/05/12 06:25:54;;;;;;;7.97;4.28;;;13.60;99.90;;;;;;4995193;28;20554;-87
2023/05/12 06:28:19;;;;;;;5.05;4.55;;;13.70;99.90;;;;;;4994886;28;20187;-87
2023/05/12 06:30:45;;;;;;;6.28;4.22;;;13.70;99.90;;;;;;4994311;28;20188;-88
2023/05/12 06:33:10;;;;;;;5.97;4.60;;;13.70;99.90;;;;;;4996236;28;20243;-87
2023/05/12 06:35:36;;;;;;;8.98;4.82;;;13.90;99.90;;;;;;4996437;28;20645;-87
2023/05/12 06:38:02;;;;;;;5.05;4.55;;;14.00;99.90;;;;;;4996958;28;20187;-88
2023/05/12 06:40:27;;;;;;;10.25;5.10;;;14.00;99.90;;;;;;5012485;28;20291;-88
2023/05/12 06:42:53;;;;;;;7.90;4.80;;;14.10;99.90;;;;;;4997551;28;20261;-88
2023/05/12 06:45:19;;;;;;;4.95;4.28;;;14.20;99.90;;;;;;4996397;28;20188;-87
2023/05/12 06:47:45;;;;;;;5.75;4.63;;;14.20;99.90;;;;;;4996822;28;20265;-87
2023/05/12 06:50:11;;;;;;;8.48;4.57;;;14.30;99.90;;;;;;4987553;28;20188;-87
2023/05/12 06:52:36;;;;;;;10.65;4.47;;;14.40;99.90;;;;;;4987509;28;20192;-88
2023/05/12 06:55:02;;;;;;;8.23;5.00;;;14.40;99.90;;;;;;4994182;28;20212;-88
2023/05/12 06:57:27;;;;;;;6.75;4.57;;;14.50;99.90;;;;;;5012698;28;20572;-88
2023/05/12 06:59:54;;;;;;;11.70;4.65;;;14.60;99.90;;;;;;4997747;28;20230;-87
2023/05/12 07:02:20;;;;;;;7.63;4.97;;;14.70;99.90;;;;;;4996359;28;20188;-89
2023/05/12 07:04:45;;;;;;;8.50;4.82;;;14.80;99.90;;;;;;4997957;28;20522;-88
2023/05/12 07:07:11;;;;;;;8.35;4.82;;;14.90;99.90;;;;;;4996622;28;20225;-87
2023/05/12 07:09:41;;;;;;;8.60;4.95;;;14.90;99.90;;;;;;4996862;28;20689;-88
2023/05/12 07:12:07;;;;;;;8.35;5.07;;;15.00;99.90;;;;;;4996119;28;20198;-88
2023/05/12 07:14:32;;;;;;;7.43;5.15;;;15.10;99.90;;;;;;4996869;28;20262;-85
2023/05/12 07:16:58;;;;;;;5.68;4.78;;;15.20;99.90;;;;;;4996157;28;20600;-86
2023/05/12 07:19:23;;;;;;;7.25;4.95;;;15.30;99.90;;;;;;4995839;28;20270;-88
2023/05/12 07:21:49;;;;;;;9.32;4.47;;;15.40;99.90;;;;;;4992329;28;20200;-88
2023/05/12 07:24:15;;;;;;;8.90;4.57;;;15.50;99.90;;;;;;4996395;28;20608;-89
2023/05/12 07:26:42;;;;;;;6.35;4.70;;;15.60;99.90;;;;;;4995746;28;20216;-88
2023/05/12 07:29:09;;;;;;;11.90;5.00;;;15.70;99.90;;;;;;4998001;28;20168;-88
2023/05/12 07:31:35;;;;;;;6.00;4.72;;;15.80;99.90;;;;;;4996966;28;20654;-87
2023/05/12 07:34:01;;;;;;;6.95;4.43;;;15.90;99.90;;;;;;4995804;28;20192;-88
2023/05/12 07:36:27;;;;;;;8.48;5.18;;;16.00;99.90;;;;;;4994962;28;20188;-88
2023/05/12 07:38:53;;;;;;;6.88;4.60;;;16.10;99.90;;;;;;4996918;28;20190;-90
2023/05/12 07:41:18;;;;;;;8.15;4.60;;;16.30;99.90;;;;;;4996605;28;20184;-91
2023/05/12 07:43:44;;;;;;;9.25;4.88;;;16.30;99.90;;;;;;4995915;28;20188;-92
2023/05/12 07:46:10;;;;;;;8.93;4.72;;;16.50;99.90;;;;;;4997204;28;20207;-90
2023/05/12 07:48:38;;;;;;;6.70;4.78;;;16.70;99.90;;;;;;4995274;28;20622;-91
2023/05/12 07:51:05;;;;;;;7.93;3.90;;;16.80;99.90;;;;;;5009599;28;20265;-85
2023/05/12 07:53:31;;;;;;;5.63;4.20;;;16.90;99.90;;;;;;4995947;28;20427;-86
2023/05/12 07:55:56;;;;;;;7.60;4.90;;;16.90;99.90;;;;;;4994809;28;20243;-89
2023/05/12 07:58:22;;;;;;;7.75;4.70;;;17.00;99.90;;;;;;4993812;28;20187;-87
2023/05/12 08:00:49;;;;;;;6.07;4.57;;;17.00;99.90;;;;;;4995693;28;20180;-91
2023/05/12 08:03:15;;;;;;;6.53;4.68;;;17.00;99.90;;;;;;4995713;28;20184;-90
2023/05/12 08:05:41;;;;;;;7.43;4.25;;;17.00;99.90;;;;;;4995175;28;20234;-92
2023/05/12 08:08:14;;;;;;;6.40;4.35;;;17.20;99.90;;;;;;4997263;28;20206;-93
2023/05/12 08:10:42;;;;;;;7.60;4.47;;;17.30;99.90;;;;;;4995851;28;20187;-93
2023/05/12 08:13:08;;;;;;;12.68;4.32;;;17.30;99.90;;;;;;4992855;28;20207;-93
2023/05/12 08:15:34;;;;;;;10.30;4.85;;;17.30;99.90;;;;;;4980886;28;20618;-91
2023/05/12 08:17:59;;;;;;;6.28;4.00;;;17.30;99.90;;;;;;4993169;28;20226;-89
2023/05/12 08:20:25;;;;;;;8.73;4.38;;;17.20;99.90;;;;;;4980773;28;20192;-88
2023/05/12 08:22:51;;;;;;;7.78;4.30;;;17.20;99.90;;;;;;4996918;28;20242;-89
2023/05/12 08:25:17;;;;;;;7.43;4.43;;;17.20;99.90;;;;;;4996824;28;20570;-90
2023/05/12 08:27:42;;;;;;;10.25;4.13;;;17.20;99.90;;;;;;4993910;28;20545;-90
2023/05/12 08:30:10;;;;;;;12.13;4.55;;;17.20;99.90;;;;;;4993453;28;20188;-88
2023/05/12 08:32:36;;;;;;;7.60;4.32;;;17.30;99.90;;;;;;5004632;28;20195;-86
2023/05/12 08:35:02;;;;;;;6.03;4.10;;;17.30;99.90;;;;;;4994962;28;20188;-89
2023/05/12 08:37:28;;;;;;;6.57;3.95;;;17.40;99.90;;;;;;4996819;28;20176;-88
2023/05/12 08:39:58;;;;;;;8.68;3.90;;;17.50;99.90;;;;;;5011844;28;20180;-89
2023/05/12 08:42:36;;;;;;;6.13;4.07;;;17.50;99.90;;;;;;4994822;28;20614;-91
2023/05/12 08:45:03;;;;;;;6.15;3.97;;;17.70;99.90;;;;;;4995603;28;20171;-89
2023/05/12 08:47:31;;;;;;;5.85;4.05;;;17.80;99.90;;;;;;4995254;28;20208;-88
2023/05/12 08:50:02;;;;;;;5.85;4.00;;;17.90;99.90;;;;;;4995173;28;20180;-89
2023/05/12 08:52:32;;;;;;;12.73;4.38;;;18.20;99.90;;;;;;4994707;28;20176;-89
2023/05/12 08:54:59;;;;;;;6.45;3.63;;;18.40;99.90;;;;;;4995087;28;20263;-89
2023/05/12 08:57:25;;;;;;;4.72;3.67;;;18.60;99.90;;;;;;4995005;28;20207;-89
2023/05/12 08:59:55;;;;;;;8.45;3.60;;;18.70;99.90;;;;;;4994985;28;20238;-88
2023/05/12 09:02:23;;;;;;;5.18;3.58;;;18.70;99.90;;;;;;4994872;28;20628;-88
2023/05/12 09:04:53;;;;;;;8.27;3.80;;;18.90;99.90;;;;;;4995864;28;20508;-88
2023/05/12 09:07:21;;;;;;;6.05;3.80;;;19.10;99.90;;;;;;4995045;28;20670;-88
2023/05/12 09:09:55;;;;;;;7.88;4.03;;;19.20;99.90;;;;;;4995249;28;20626;-89
2023/05/12 09:12:21;;;;;;;7.45;3.40;;;19.40;99.90;;;;;;4994812;28;20182;-90
2023/05/12 09:15:02;;;;;;;8.65;3.85;;;19.60;99.90;;;;;;4994533;28;20666;-88
2023/05/12 09:17:28;;;;;;;4.55;3.45;;;19.80;99.90;;;;;;4975653;28;20173;-87
2023/05/12 09:19:54;;;;;;;7.38;3.80;;;20.00;99.90;;;;;;4979829;28;20186;-88
2023/05/12 09:22:32;;;;;;;7.88;3.95;;;20.10;99.90;;;;;;4993060;28;20566;-88
2023/05/12 09:24:58;;;;;;;7.85;4.28;;;20.10;99.90;;;;;;4994326;28;20172;-88
2023/05/12 09:27:28;;;;;;;8.48;4.90;;;20.10;99.90;;;;;;4995370;28;20208;-88
2023/05/12 09:29:55;;;;;;;6.72;3.95;;;20.10;99.90;;;;;;4994956;28;20180;-88
2023/05/12 09:32:34;;;;;;;8.30;3.83;;;20.20;99.50;;;;;;4993796;28;20642;-86
2023/05/12 09:35:10;;;;;;;9.82;2.95;;;20.20;98.90;;;;;;4991889;28;20267;-86
2023/05/12 09:37:36;;;;;;;8.57;3.55;;;20.20;97.10;;;;;;4993289;28;20187;-88
2023/05/12 09:40:07;;;;;;;6.05;3.38;;;20.20;97.20;;;;;;4993157;28;20282;-86
2023/05/12 09:42:34;;;;;;;5.03;3.35;;;20.20;96.70;;;;;;4993731;28;20219;-86
2023/05/12 09:45:04;;;;;;;5.40;3.40;;;20.40;97.30;;;;;;4995058;28;20182;-86
2023/05/12 09:47:39;;;;;;;7.28;3.58;;;20.50;98.40;;;;;;4992868;28;20243;-86
2023/05/12 09:50:07;;;;;;;6.38;3.08;;;20.60;99.20;;;;;;4992863;28;20527;-86
2023/05/12 09:52:38;;;;;;;7.65;3.30;;;20.80;97.90;;;;;;4993211;28;20274;-88
2023/05/12 09:55:09;;;;;;;5.28;3.30;;;20.90;96.70;;;;;;4993632;28;20176;-88
2023/05/12 09:57:40;;;;;;;8.13;3.13;;;20.90;96.20;;;;;;4990301;28;20201;-88
2023/05/12 10:00:16;;;;;;;5.20;3.25;;;20.90;96.40;;;;;;4993043;28;20619;-89
2023/05/12 10:02:42;;;;;;;3.78;2.80;;;21.00;95.80;;;;;;4993048;28;20199;-87
2023/05/12 10:05:17;;;;;;;5.03;3.05;;;21.00;96.80;;;;;;4993343;28;20559;-88
2023/05/12 10:07:46;;;;;;;5.57;3.03;;;21.10;95.70;;;;;;4994028;28;20211;-90
2023/05/12 10:10:21;;;;;;;6.55;3.08;;;21.10;94.90;;;;;;4994391;28;20222;-87
2023/05/12 10:12:48;;;;;;;7.00;3.33;;;21.10;93.10;;;;;;4992946;28;20687;-89
2023/05/12 10:15:16;;;;;;;7.25;3.30;;;21.20;93.80;;;;;;4993607;28;20183;-88
2023/05/12 10:17:43;;;;;;;8.05;3.33;;;21.40;94.50;;;;;;4992519;28;20195;-87
2023/05/12 10:20:10;;;;;;;4.43;2.92;;;21.50;94.60;;;;;;4993289;28;20338;-88
2023/05/12 10:22:39;;;;;;;7.25;3.00;;;21.60;94.40;;;;;;4989448;28;20181;-85
2023/05/12 10:25:09;;;;;;;6.22;2.90;;;21.70;94.00;;;;;;4991045;28;20242;-84
2023/05/12 10:27:36;;;;;;;5.07;2.72;;;21.80;91.60;;;;;;4993417;28;20552;-85
2023/05/12 10:30:03;;;;;;;7.40;2.95;;;21.80;93.10;;;;;;4992292;28;20192;-87
2023/05/12 10:32:29;;;;;;;6.88;3.50;;;21.90;94.30;;;;;;4994817;28;20311;-86
2023/05/12 10:35:05;;;;;;;4.43;3.13;;;21.80;92.50;;;;;;4992792;28;20207;-87
2023/05/12 10:37:33;;;;;;;4.13;2.65;;;21.50;92.60;;;;;;4973781;28;20196;-87
2023/05/12 10:40:01;;;;;;;3.90;2.45;;;21.10;93.10;;;;;;4981476;28;20176;-87
2023/05/12 10:42:40;;;;;;;6.07;2.38;;;20.80;90.90;;;;;;4993564;28;20198;-85
2023/05/12 10:45:17;;;;;;;5.93;2.80;;;20.70;90.90;;;;;;4992881;28;20212;-87
2023/05/12 10:47:43;;;;;;;4.35;2.40;;;21.00;92.00;;;;;;4993404;28;20270;-87
2023/05/12 10:50:12;;;;;;;5.93;2.95;;;21.30;91.10;;;;;;4991925;28;20242;-84
2023/05/12 10:52:40;;;;;;;4.30;2.33;;;21.20;90.30;;;;;;4992849;28;20184;-84
2023/05/12 10:55:12;;;;;;;3.58;2.50;;;21.00;87.10;;;;;;4992012;28;20184;-85
2023/05/12 10:57:48;;;;;;;4.97;2.60;;;20.70;90.20;;;;;;5009706;28;20529;-85
2023/05/12 11:00:14;;;;;;;6.78;2.70;;;20.80;89.10;;;;;;4992744;28;20183;-83
2023/05/12 11:02:49;;;;;;;3.70;2.38;;;21.00;90.30;;;;;;4993142;28;20172;-84
2023/05/12 11:05:15;;;;;;;3.00;2.25;;;21.50;88.50;;;;;;4991790;28;20227;-83
2023/05/12 11:07:49;;;;;;;9.13;2.30;;;21.70;86.20;;;;;;4997812;28;20212;-89
2023/05/12 11:10:15;;;;;;;3.20;2.05;;;21.50;84.20;;;;;;4996657;28;20180;-85
2023/05/12 11:12:43;;;;;;;4.97;2.30;;;21.20;84.30;;;;;;4996645;28;20191;-85
2023/05/12 11:15:09;;;;;;;5.60;2.30;;;21.30;78.80;;;;;;4996048;28;20176;-87
2023/05/12 11:17:39;;;;;;;6.35;2.50;;;21.50;80.20;;;;;;4996896;28;20194;-84
2023/05/12 11:20:08;;;;;;;6.07;1.98;;;21.30;78.50;;;;;;4991116;28;20184;-85
2023/05/12 11:22:35;;;;;;;5.60;2.30;;;21.10;77.90;;;;;;5002542;28;20504;-87
2023/05/12 11:25:11;;;;;;;4.20;2.00;;;21.10;82.10;;;;;;4982149;28;20187;-88
2023/05/12 11:27:43;;;;;;;7.00;2.40;;;21.40;78.50;;;;;;4990348;28;20234;-86
2023/05/12 11:30:10;;;;;;;4.13;1.77;;;21.60;77.90;;;;;;4997146;28;20183;-83
2023/05/12 11:32:35;;;;;;;3.20;1.95;;;21.30;76.80;;;;;;4995423;28;20278;-87
2023/05/12 11:35:15;;;;;;;5.45;2.15;;;21.30;75.50;;;;;;4995507;28;20276;-88
2023/05/12 11:37:42;;;;;;;5.55;2.25;;;21.60;79.50;;;;;;4996385;28;20553;-90
2023/05/12 11:40:19;;;;;;;3.15;2.08;;;21.80;78.20;;;;;;4996559;28;20176;-86
2023/05/12 11:42:47;;;;;;;3.90;2.00;;;21.90;73.40;;;;;;4995942;28;20175;-85
2023/05/12 11:45:24;;;;;;;3.45;1.92;;;21.70;73.70;;;;;;5007438;28;20219;-86
2023/05/12 11:47:51;;;;;;;4.35;2.22;;;21.40;73.10;;;;;;4997451;28;20203;-87
2023/05/12 11:50:23;;;;;;;3.42;2.00;;;21.20;73.30;;;;;;4995153;28;20172;-85
2023/05/12 11:52:50;;;;;;;4.88;1.85;;;20.80;73.20;;;;;;4995875;28;20195;-84
2023/05/12 11:55:22;;;;;;;8.07;2.40;;;20.70;75.00;;;;;;4995213;28;20175;-85
2023/05/12 11:57:59;;;;;;;4.10;2.33;;;20.80;76.40;;;;;;4994684;28;20188;-86
2023/05/12 12:00:33;;;;;;;2.92;1.85;;;21.20;74.00;;;;;;4994858;28;20622;-86
2023/05/12 12:03:11;;;;;;;3.88;2.00;;;21.80;74.80;;;;;;4993849;28;20191;-82
2023/05/12 12:05:37;;;;;;;5.78;2.08;;;22.00;71.00;;;;;;4985638;28;20227;-83
2023/05/12 12:08:08;;;;;;;4.63;2.10;;;21.80;71.70;;;;;;4993964;28;20191;-85
2023/05/12 12:10:34;;;;;;;4.40;2.30;;;21.60;72.50;;;;;;4994193;28;20274;-83
2023/05/12 12:13:01;;;;;;;3.00;1.70;;;21.80;69.20;;;;;;4995509;28;20188;-84
2023/05/12 12:15:28;;;;;;;2.30;1.52;;;21.90;68.40;;;;;;4977536;28;20164;-83
2023/05/12 12:17:54;;;;;;;4.07;2.10;;;22.10;67.40;;;;;;4981814;28;20219;-84
2023/05/12 12:20:20;;;;;;;5.00;1.90;;;22.40;68.10;;;;;;4995044;28;20262;-84
2023/05/12 12:22:47;;;;;;;5.75;2.13;;;22.60;69.10;;;;;;4994689;28;20234;-85
2023/05/12 12:25:13;;;;;;;3.95;2.08;;;22.80;70.00;;;;;;4994587;28;20242;-87
2023/05/12 12:27:38;;;;;;;3.25;2.28;;;22.70;67.20;;;;;;5010991;28;20219;-87
2023/05/12 12:30:04;;;;;;;3.35;1.75;;;22.60;71.20;;;;;;4994956;28;20234;-85
2023/05/12 12:32:30;;;;;;;3.35;2.00;;;22.70;67.10;;;;;;4996270;28;20196;-86
2023/05/12 12:34:58;;;;;;;4.13;1.90;;;23.00;70.60;;;;;;4994699;28;20180;-88
2023/05/12 12:37:24;;;;;;;3.80;2.05;;;23.30;68.30;;;;;;4994956;28;20183;-88
2023/05/12 12:39:50;;;;;;;6.65;2.22;;;23.50;69.30;;;;;;4995471;28;20182;-89
2023/05/12 12:42:19;;;;;;;3.15;2.05;;;23.50;69.80;;;;;;4995322;28;20693;-87
2023/05/12 12:44:46;;;;;;;3.85;1.77;;;23.00;66.10;;;;;;4995047;28;20180;-87
2023/05/12 12:47:12;;;;;;;3.17;2.10;;;22.60;68.30;;;;;;4996387;28;20216;-87